Gilliam, Louisiana
Current Conditions -  °F | °C
As of 6:53 PM on Sunday 23 Nov 2014 (Local Time) from KDTN Reporting Station
Clear Clear  
Wind Chill: 67°   Ceiling: Unl
Heat Index: 67°   Visibility: 10mi
Dew Point: 54°   Wind: 14mph
Humidity: 63%   Direction: 200°SSW
Pressure: 29.49"   Gusts: NA
Location:  32.83°N, 93.85°W
Report Text: KDTN 240053Z 20012KT 10SM CLR 19/12 A2949 RMK AO2 SLP985 T01940122
Loading
Personal Weather Stations






























Interactive Weather Map New forecast layout! Learn more

10-Day Weather Forecast

Advertisements
Track Severe Weather on mobile